Fairbanks/Eielson AFB, Alaska
Current Conditions -  °F | °C
As of 4:58 AM on Saturday 25 Oct 2014 (Local Time) from PAEI Reporting Station
Freezing Drizzle Freezing Drizzle  
Wind Chill: 24°   Ceiling: 400
Heat Index: 24°   Visibility: 2.5mi
Dew Point: 22°   Wind: 0mph
Humidity: 93%   Direction: NA
Pressure: 29.99"   Gusts: NA
Location:  64.67°N, 147.1°W
Report Text: PAEI 251258Z AUTO 00000KT 2 1/2SM R32/3500FT -FZDZ BR OVC004 M05/M06 A2999 RMK AO2 SLP167 P0000 T10471057 $
Loading
Personal Weather Stations






























Interactive Weather Map
Tropical Storm Tracking
New forecast layout! Learn more

10-Day Weather Forecast

Advertisements
Track Severe Weather on mobile